Time;durP1;ratioP1;P1;durP2;ratioP2;P2;SDS_P1;SDS_P2;PMS_P1;PMS_P2;Temp;Humidity;BMP_temperature;BMP_pressure;BME280_temperature;BME280_humidity;BME280_pressure;Samples;Min_cycle;Max_cycle;Signal;HPM_P1;HPM_P2
2022/08/14 00:03:04;;;;;;;10.43;6.38;;;;;;;;;;5111768;27;20392;-77
2022/08/14 00:06:45;;;;;;;9.57;6.88;;;;;;;;;;5111148;27;20461;-77
2022/08/14 00:09:11;;;;;;;9.35;6.38;;;;;;;;;;5111346;28;20043;-76
2022/08/14 00:13:04;;;;;;;10.73;6.78;;;;;;;;;;5111422;27;20838;-78
2022/08/14 00:15:33;;;;;;;9.27;5.88;;;;;;;;;;5110982;28;20024;-77
2022/08/14 00:17:59;;;;;;;9.88;6.40;;;;;;;;;;5111322;28;20491;-77
2022/08/14 00:20:27;;;;;;;10.48;7.70;;;;;;;;;;5111022;28;20045;-77
2022/08/14 00:22:53;;;;;;;9.32;6.28;;;;;;;;;;5109922;28;20431;-77
2022/08/14 00:25:20;;;;;;;9.82;6.47;;;;;;;;;;5111120;28;20032;-77
2022/08/14 00:28:48;;;;;;;9.35;6.38;;;;;;;;;;5111273;27;20393;-77
2022/08/14 00:31:14;;;;;;;9.35;6.53;;;;;;;;;;5111437;28;20480;-77
2022/08/14 00:33:40;;;;;;;9.02;5.63;;;;;;;;;;5127012;28;20050;-78
2022/08/14 00:36:08;;;;;;;10.32;6.82;;;;;;;;;;5111016;28;20027;-77
2022/08/14 00:38:35;;;;;;;9.13;6.45;;;;;;;;;;5111380;28;20028;-78
2022/08/14 00:41:02;;;;;;;9.18;6.32;;;;;;;;;;5111106;28;20027;-77
2022/08/14 00:44:22;;;;;;;10.30;6.60;;;;;;;;;;5112014;27;20393;-79
2022/08/14 00:46:48;;;;;;;10.65;6.28;;;;;;;;;;5111666;28;20054;-79
2022/08/14 00:49:15;;;;;;;10.52;6.63;;;;;;;;;;5109616;28;20027;-77
2022/08/14 00:52:04;;;;;;;10.70;7.00;;;;;;;;;;5111453;27;20536;-77
2022/08/14 00:56:31;;;;;;;8.98;6.53;;;;;;;;;;5111391;27;20805;-77
2022/08/14 00:58:58;;;;;;;13.60;6.72;;;;;;;;;;5110148;28;20388;-78
2022/08/14 01:02:36;;;;;;;12.82;7.30;;;;;;;;;;5111934;27;20987;-77
2022/08/14 01:06:52;;;;;;;9.90;6.80;;;;;;;;;;5111546;27;20458;-79
2022/08/14 01:09:21;;;;;;;9.07;6.40;;;;;;;;;;5111654;28;20020;-76
2022/08/14 01:14:08;;;;;;;9.13;6.43;;;;;;;;;;5112266;27;20397;-77
2022/08/14 01:16:34;;;;;;;10.10;6.78;;;;;;;;;;5111902;28;20379;-76
2022/08/14 01:21:46;;;;;;;9.15;6.88;;;;;;;;;;5111438;28;20150;-76
2022/08/14 01:25:23;;;;;;;10.13;7.07;;;;;;;;;;5111196;27;20461;-76
2022/08/14 01:27:50;;;;;;;9.15;6.78;;;;;;;;;;5111440;28;20103;-76
2022/08/14 01:30:17;;;;;;;9.60;6.45;;;;;;;;;;5111475;28;20031;-76
2022/08/14 01:34:57;;;;;;;12.48;7.75;;;;;;;;;;5112181;27;20443;-77
2022/08/14 01:38:33;;;;;;;12.57;7.95;;;;;;;;;;5111270;27;20113;-77
2022/08/14 01:41:09;;;;;;;10.85;7.60;;;;;;;;;;5111521;28;20024;-76
2022/08/14 01:44:14;;;;;;;11.07;7.65;;;;;;;;;;5112164;27;20546;-76
2022/08/14 01:46:43;;;;;;;12.48;8.25;;;;;;;;;;5111206;28;20031;-76
2022/08/14 01:51:57;;;;;;;11.05;7.13;;;;;;;;;;5111171;27;20400;-77
2022/08/14 01:54:24;;;;;;;9.95;6.88;;;;;;;;;;5111555;28;20028;-77
2022/08/14 01:56:53;;;;;;;10.50;7.03;;;;;;;;;;5111651;28;20486;-78
2022/08/14 02:00:25;;;;;;;11.00;6.85;;;;;;;;;;5111439;27;20385;-77
2022/08/14 02:03:49;;;;;;;10.75;7.88;;;;;;;;;;5105195;27;1440532;-76
2022/08/14 02:07:19;;;;;;;11.07;7.80;;;;;;;;;;5111068;27;20397;-76
2022/08/14 02:09:45;;;;;;;8.30;5.85;;;;;;;;;;5111546;28;20026;-76
2022/08/14 02:12:11;;;;;;;10.07;7.53;;;;;;;;;;5111664;28;20020;-76
2022/08/14 02:15:20;;;;;;;9.93;6.57;;;;;;;;;;5111482;27;20540;-76
2022/08/14 02:19:23;;;;;;;11.23;7.60;;;;;;;;;;5111628;27;20863;-76
2022/08/14 02:23:30;;;;;;;10.15;7.97;;;;;;;;;;5112104;27;20414;-76
2022/08/14 02:25:58;;;;;;;11.95;7.97;;;;;;;;;;5111517;28;20046;-76
2022/08/14 02:28:25;;;;;;;10.23;7.15;;;;;;;;;;5110926;28;20020;-76
2022/08/14 02:32:25;;;;;;;10.20;7.63;;;;;;;;;;5112224;27;20389;-76
2022/08/14 02:34:51;;;;;;;11.52;7.63;;;;;;;;;;5110986;28;20024;-76
2022/08/14 02:37:17;;;;;;;10.40;7.45;;;;;;;;;;5110072;28;20028;-76
2022/08/14 02:39:45;;;;;;;10.77;7.47;;;;;;;;;;5111279;28;20108;-76
2022/08/14 02:42:13;;;;;;;13.02;8.25;;;;;;;;;;5111014;28;20379;-76
2022/08/14 02:46:55;;;;;;;9.50;6.43;;;;;;;;;;5112234;27;20459;-77
2022/08/14 02:49:25;;;;;;;10.80;6.78;;;;;;;;;;5111050;28;20472;-76
2022/08/14 02:51:51;;;;;;;9.80;7.03;;;;;;;;;;5111326;28;20027;-76
2022/08/14 02:54:18;;;;;;;9.70;6.80;;;;;;;;;;5111461;28;20020;-77
2022/08/14 02:58:37;;;;;;;9.20;6.80;;;;;;;;;;5111513;27;20410;-76
2022/08/14 03:01:49;;;;;;;9.93;6.28;;;;;;;;;;5112240;27;20389;-77
2022/08/14 03:04:53;;;;;;;10.70;6.75;;;;;;;;;;5111457;27;20761;-77
2022/08/14 03:07:19;;;;;;;10.13;6.35;;;;;;;;;;5111479;28;20038;-77
2022/08/14 03:09:45;;;;;;;10.82;6.63;;;;;;;;;;5110964;28;20023;-76
2022/08/14 03:12:11;;;;;;;9.98;6.38;;;;;;;;;;5111329;28;20032;-76
2022/08/14 03:17:18;;;;;;;7.88;5.72;;;;;;;;;;5111554;27;20613;-76
2022/08/14 03:19:44;;;;;;;8.48;5.50;;;;;;;;;;5111403;28;20030;-76
2022/08/14 03:22:10;;;;;;;9.60;5.55;;;;;;;;;;5110143;28;20023;-76
2022/08/14 03:26:38;;;;;;;6.30;4.30;;;;;;;;;;5112191;27;20388;-76
2022/08/14 03:30:56;;;;;;;6.45;4.13;;;;;;;;;;5111373;27;20397;-76
2022/08/14 03:33:23;;;;;;;6.32;4.15;;;;;;;;;;5111442;28;20031;-76
2022/08/14 03:35:50;;;;;;;5.50;3.60;;;;;;;;;;5111404;28;20028;-76
2022/08/14 03:38:17;;;;;;;6.38;4.43;;;;;;;;;;5111003;28;20054;-77
2022/08/14 03:42:04;;;;;;;7.43;4.15;;;;;;;;;;5111705;27;20516;-77
2022/08/14 03:44:34;;;;;;;7.38;4.38;;;;;;;;;;5111302;28;20055;-76
2022/08/14 03:47:00;;;;;;;6.70;3.83;;;;;;;;;;5111530;28;20024;-77
2022/08/14 03:49:26;;;;;;;7.90;4.35;;;;;;;;;;5111404;28;20472;-77
2022/08/14 03:54:02;;;;;;;7.03;4.50;;;;;;;;;;5112033;27;20800;-77
2022/08/14 03:56:28;;;;;;;8.10;4.25;;;;;;;;;;5127842;28;20439;-77
2022/08/14 04:02:07;;;;;;;6.45;4.18;;;;;;;;;;5112226;27;20423;-77
2022/08/14 04:04:34;;;;;;;6.75;4.00;;;;;;;;;;5111386;28;20589;-77
2022/08/14 04:07:00;;;;;;;6.50;3.67;;;;;;;;;;5111032;28;20024;-77
2022/08/14 04:09:26;;;;;;;6.68;3.33;;;;;;;;;;5111360;28;20028;-77
2022/08/14 04:11:52;;;;;;;6.40;3.40;;;;;;;;;;5111487;28;20032;-77
2022/08/14 04:15:29;;;;;;;4.80;2.75;;;;;;;;;;5111874;27;20912;-77
2022/08/14 04:17:55;;;;;;;4.93;3.30;;;;;;;;;;5111921;28;20028;-77
2022/08/14 04:20:21;;;;;;;9.43;4.03;;;;;;;;;;5111023;28;20015;-76
2022/08/14 04:22:52;;;;;;;8.35;3.85;;;;;;;;;;5111373;28;20024;-77
2022/08/14 04:25:18;;;;;;;6.18;3.28;;;;;;;;;;5109961;28;20024;-77
2022/08/14 04:27:44;;;;;;;6.45;3.60;;;;;;;;;;5110878;28;20016;-77
2022/08/14 04:30:11;;;;;;;6.95;3.65;;;;;;;;;;5111583;28;20047;-77
2022/08/14 04:32:50;;;;;;;6.03;3.60;;;;;;;;;;5112190;27;20384;-77
2022/08/14 04:35:16;;;;;;;5.72;3.10;;;;;;;;;;5111129;28;20016;-77
2022/08/14 04:52:19;;;;;;;7.15;4.47;;;;;;;;;;5111693;27;20462;-77
2022/08/14 04:57:22;;;;;;;6.50;4.22;;;;;;;;;;5111880;27;20426;-77
2022/08/14 05:01:43;;;;;;;6.88;4.20;;;;;;;;;;5111050;27;20392;-77
2022/08/14 05:04:11;;;;;;;7.55;4.78;;;;;;;;;;5111393;28;20050;-77
2022/08/14 05:10:43;;;;;;;6.70;4.53;;;;;;;;;;5111174;27;20422;-77
2022/08/14 05:14:06;;;;;;;7.03;4.30;;;;;;;;;;5112159;27;20373;-77
2022/08/14 05:19:30;;;;;;;7.55;4.35;;;;;;;;;;5111648;27;20469;-77
2022/08/14 05:21:57;;;;;;;6.90;4.00;;;;;;;;;;5111784;28;20028;-77
2022/08/14 05:24:23;;;;;;;6.70;4.00;;;;;;;;;;5111190;28;20387;-76
2022/08/14 05:27:33;;;;;;;6.35;4.32;;;;;;;;;;5112283;27;20393;-77
2022/08/14 05:30:04;;;;;;;7.57;4.32;;;;;;;;;;5111661;28;20027;-77
2022/08/14 05:32:30;;;;;;;7.47;4.40;;;;;;;;;;5111738;28;20344;-77
2022/08/14 05:34:59;;;;;;;7.15;4.43;;;;;;;;;;5127123;28;20024;-77
2022/08/14 05:37:26;;;;;;;6.00;3.65;;;;;;;;;;5110964;28;20028;-77
2022/08/14 05:41:37;;;;;;;6.03;3.88;;;;;;;;;;5173999;27;20106;-77
2022/08/14 05:45:25;;;;;;;5.53;3.97;;;;;;;;;;5111382;27;20460;-77
2022/08/14 05:49:52;;;;;;;7.20;4.00;;;;;;;;;;5111612;27;20393;-77
2022/08/14 05:52:19;;;;;;;5.88;3.80;;;;;;;;;;5111162;28;20093;-77
2022/08/14 05:54:45;;;;;;;6.03;4.10;;;;;;;;;;5111542;28;20058;-77
2022/08/14 06:03:51;;;;;;;6.88;3.60;;;;;;;;;;5111937;27;20396;-77
2022/08/14 06:07:57;;;;;;;6.55;3.97;;;;;;;;;;5111419;27;20109;-77
2022/08/14 06:11:54;;;;;;;5.43;3.20;;;;;;;;;;5112204;27;20550;-77
2022/08/14 06:17:49;;;;;;;6.35;3.63;;;;;;;;;;5112299;27;20977;-77
2022/08/14 06:22:10;;;;;;;6.15;3.72;;;;;;;;;;5111826;27;20393;-77
2022/08/14 06:26:05;;;;;;;4.60;3.03;;;;;;;;;;5111023;27;20779;-77
2022/08/14 06:30:11;;;;;;;4.60;3.03;;;;;;;;;;5112112;27;20554;-77
2022/08/14 06:33:36;;;;;;;5.75;3.10;;;;;;;;;;5111548;27;20460;-77
2022/08/14 06:36:02;;;;;;;6.07;2.97;;;;;;;;;;5111948;28;20046;-78
2022/08/14 06:38:28;;;;;;;4.97;2.95;;;;;;;;;;5110078;28;20079;-78
2022/08/14 06:40:54;;;;;;;6.03;2.72;;;;;;;;;;5110997;28;20069;-77
2022/08/14 06:43:20;;;;;;;6.00;2.92;;;;;;;;;;5111209;28;20020;-76
2022/08/14 06:46:34;;;;;;;4.95;2.80;;;;;;;;;;5111514;27;20385;-77
2022/08/14 06:49:01;;;;;;;3.47;2.10;;;;;;;;;;5109763;28;20024;-77
2022/08/14 06:51:27;;;;;;;5.00;2.72;;;;;;;;;;5111389;28;20390;-77
2022/08/14 06:54:46;;;;;;;5.68;2.90;;;;;;;;;;5111544;27;20392;-77
2022/08/14 06:57:12;;;;;;;5.20;3.08;;;;;;;;;;5111491;28;20020;-78
2022/08/14 07:00:33;;;;;;;4.68;2.92;;;;;;;;;;5111989;27;20633;-78
2022/08/14 07:05:47;;;;;;;6.78;3.30;;;;;;;;;;5111675;28;20127;-77
2022/08/14 07:08:13;;;;;;;4.78;2.72;;;;;;;;;;5111287;28;20173;-77
2022/08/14 07:10:58;;;;;;;7.32;2.75;;;;;;;;;;5111928;27;20784;-77
2022/08/14 07:13:25;;;;;;;4.28;2.72;;;;;;;;;;5114914;28;20032;-77
2022/08/14 07:18:52;;;;;;;5.20;3.00;;;;;;;;;;5110812;27;20396;-77
2022/08/14 07:22:41;;;;;;;6.82;3.55;;;;;;;;;;5111250;27;20939;-77
2022/08/14 07:25:07;;;;;;;5.63;3.40;;;;;;;;;;5111473;28;20368;-78
2022/08/14 07:27:34;;;;;;;4.93;3.13;;;;;;;;;;5111554;28;20069;-78
2022/08/14 07:30:02;;;;;;;6.10;3.40;;;;;;;;;;5111000;28;20031;-78
2022/08/14 07:32:28;;;;;;;5.60;3.40;;;;;;;;;;5109895;28;20062;-78
2022/08/14 07:34:54;;;;;;;4.22;2.58;;;;;;;;;;5111326;28;20384;-79
2022/08/14 07:37:20;;;;;;;4.85;2.90;;;;;;;;;;5110763;28;20031;-79
2022/08/14 07:39:46;;;;;;;5.00;3.20;;;;;;;;;;5111188;28;20023;-78
2022/08/14 07:44:02;;;;;;;6.78;3.30;;;;;;;;;;5111125;27;21083;-77
2022/08/14 07:46:29;;;;;;;5.00;3.08;;;;;;;;;;5111620;28;20127;-77
2022/08/14 07:48:55;;;;;;;6.63;3.47;;;;;;;;;;5110031;28;20482;-78
2022/08/14 07:51:21;;;;;;;5.40;3.08;;;;;;;;;;5110961;28;20020;-78
2022/08/14 07:53:48;;;;;;;4.72;3.00;;;;;;;;;;5111514;28;20048;-78
2022/08/14 07:56:14;;;;;;;5.50;2.90;;;;;;;;;;5111193;28;20019;-78
2022/08/14 08:00:35;;;;;;;3.83;2.72;;;;;;;;;;5132572;27;20392;-78
2022/08/14 08:03:02;;;;;;;4.63;2.67;;;;;;;;;;5130525;28;20034;-78
2022/08/14 08:05:28;;;;;;;4.78;2.45;;;;;;;;;;5131555;27;20107;-78
2022/08/14 08:07:55;;;;;;;3.50;1.95;;;;;;;;;;5131802;27;20232;-78
2022/08/14 08:10:30;;;;;;;3.03;1.80;;;;;;;;;;5130428;28;20068;-77
2022/08/14 08:14:14;;;;;;;3.53;2.20;;;;;;;;;;5111444;27;20976;-78
2022/08/14 08:17:23;;;;;;;5.63;3.00;;;;;;;;;;5111424;27;20411;-78
2022/08/14 08:19:49;;;;;;;3.33;2.13;;;;;;;;;;5111126;28;20027;-78
2022/08/14 08:22:15;;;;;;;4.90;2.38;;;;;;;;;;5111367;28;20024;-78
2022/08/14 08:25:39;;;;;;;3.60;2.15;;;;;;;;;;5111553;27;20842;-78
2022/08/14 08:28:09;;;;;;;3.35;2.20;;;;;;;;;;5111427;28;20024;-78
2022/08/14 08:30:37;;;;;;;3.47;2.05;;;;;;;;;;5111524;28;20032;-78
2022/08/14 08:33:04;;;;;;;3.70;2.50;;;;;;;;;;5110867;28;20476;-78
2022/08/14 08:35:33;;;;;;;4.00;2.30;;;;;;;;;;5111168;28;20055;-78
2022/08/14 08:42:26;;;;;;;4.78;2.53;;;;;;;;;;5071249;27;20399;-78
2022/08/14 08:44:55;;;;;;;3.15;2.10;;;;;;;;;;5069617;28;20039;-78
2022/08/14 08:47:21;;;;;;;4.53;2.58;;;;;;;;;;5070264;28;20469;-78
2022/08/14 08:51:28;;;;;;;4.05;2.47;;;;;;;;;;5111966;27;20380;-78
2022/08/14 08:54:01;;;;;;;3.35;2.60;;;;;;;;;;5110953;28;20106;-78
2022/08/14 08:56:36;;;;;;;4.13;2.65;;;;;;;;;;5111815;28;20114;-79
2022/08/14 09:01:12;;;;;;;4.40;2.30;;;;;;;;;;5111464;27;20393;-80
2022/08/14 09:04:43;;;;;;;4.85;2.72;;;;;;;;;;5111704;27;20445;-78
2022/08/14 09:07:09;;;;;;;4.18;2.50;;;;;;;;;;5127148;28;20031;-78
2022/08/14 09:12:06;;;;;;;2.88;2.00;;;;;;;;;;5112298;27;20517;-79
2022/08/14 09:17:28;;;;;;;3.88;2.38;;;;;;;;;;5111438;27;20393;-79
2022/08/14 09:19:54;;;;;;;3.85;2.20;;;;;;;;;;5110023;28;20024;-78
2022/08/14 09:22:21;;;;;;;4.18;1.77;;;;;;;;;;5111256;28;20051;-78
2022/08/14 09:24:48;;;;;;;4.55;2.55;;;;;;;;;;5111303;28;20381;-78
2022/08/14 09:27:14;;;;;;;3.58;2.28;;;;;;;;;;5111213;28;20020;-78
2022/08/14 09:29:40;;;;;;;4.75;2.65;;;;;;;;;;5110847;28;20537;-80
2022/08/14 09:32:07;;;;;;;2.47;1.75;;;;;;;;;;5111231;28;20506;-79
2022/08/14 09:34:42;;;;;;;4.20;2.20;;;;;;;;;;5110888;28;20062;-79
2022/08/14 09:37:25;;;;;;;3.28;2.22;;;;;;;;;;5110528;28;20035;-79
2022/08/14 09:39:53;;;;;;;;;;;;;;;;;;5111912;28;20028;-79
2022/08/14 09:42:19;;;;;;;3.90;2.25;;;;;;;;;;5110931;28;19958;-79
2022/08/14 09:45:14;;;;;;;3.80;1.98;;;;;;;;;;5110538;28;20059;-78
2022/08/14 09:47:51;;;;;;;5.03;2.60;;;;;;;;;;5109592;28;20035;-78
2022/08/14 09:50:31;;;;;;;3.90;2.42;;;;;;;;;;5110488;28;20077;-79
2022/08/14 09:53:01;;;;;;;4.30;2.13;;;;;;;;;;5109424;28;20027;-79
2022/08/14 09:55:31;;;;;;;4.93;2.40;;;;;;;;;;5110634;28;20023;-79
2022/08/14 09:58:11;;;;;;;3.20;1.80;;;;;;;;;;5110262;28;20023;-79
2022/08/14 10:00:59;;;;;;;3.90;2.10;;;;;;;;;;5110884;28;20499;-79
2022/08/14 10:03:36;;;;;;;3.58;1.95;;;;;;;;;;5110849;28;20026;-79
2022/08/14 10:06:10;;;;;;;2.75;1.83;;;;;;;;;;5110073;28;20099;-79
2022/08/14 10:10:13;;;;;;;3.90;2.08;;;;;;;;;;5112050;27;20396;-79
2022/08/14 10:12:43;;;;;;;4.18;2.15;;;;;;;;;;5110888;28;20049;-79
2022/08/14 10:15:20;;;;;;;2.88;1.83;;;;;;;;;;5111380;28;20020;-79
2022/08/14 10:17:47;;;;;;;3.80;2.10;;;;;;;;;;5111407;28;20020;-78
2022/08/14 10:20:14;;;;;;;2.85;1.80;;;;;;;;;;5110846;28;20103;-78
2022/08/14 10:22:41;;;;;;;3.00;1.85;;;;;;;;;;5111259;28;20081;-79
2022/08/14 10:25:13;;;;;;;3.47;1.65;;;;;;;;;;5111129;28;20016;-79
2022/08/14 10:27:39;;;;;;;4.53;2.60;;;;;;;;;;5111116;28;20058;-79
2022/08/14 10:30:12;;;;;;;5.28;2.33;;;;;;;;;;5111020;28;20621;-79
2022/08/14 10:32:44;;;;;;;3.47;1.98;;;;;;;;;;5109408;28;20411;-79
2022/08/14 10:35:11;;;;;;;3.58;1.85;;;;;;;;;;5110857;28;20024;-79
2022/08/14 10:38:56;;;;;;;3.65;1.50;;;;;;;;;;5111452;27;20781;-79
2022/08/14 10:41:33;;;;;;;5.00;2.38;;;;;;;;;;5111050;28;20032;-79
2022/08/14 10:44:25;;;;;;;4.07;2.08;;;;;;;;;;5110051;28;20028;-79
2022/08/14 10:46:57;;;;;;;3.53;1.73;;;;;;;;;;5108011;28;20042;-79
2022/08/14 10:49:25;;;;;;;2.75;1.50;;;;;;;;;;5111400;28;20476;-79
2022/08/14 10:54:47;;;;;;;3.45;1.95;;;;;;;;;;5111052;27;20799;-79
2022/08/14 10:57:15;;;;;;;1.95;1.48;;;;;;;;;;5111720;28;20023;-79
2022/08/14 10:59:42;;;;;;;2.38;1.45;;;;;;;;;;5111360;28;20103;-78
2022/08/14 11:02:40;;;;;;;2.53;1.50;;;;;;;;;;5126869;28;20027;-79
2022/08/14 11:05:12;;;;;;;1.60;1.35;;;;;;;;;;5099240;28;20110;-79
2022/08/14 11:07:42;;;;;;;1.25;0.98;;;;;;;;;;5111038;28;20024;-79
2022/08/14 11:10:08;;;;;;;2.10;1.45;;;;;;;;;;5111720;28;20012;-79
2022/08/14 11:12:49;;;;;;;2.33;1.50;;;;;;;;;;5111279;28;20099;-79
2022/08/14 11:15:19;;;;;;;2.88;1.52;;;;;;;;;;5110926;28;20023;-78
2022/08/14 11:17:46;;;;;;;2.20;1.52;;;;;;;;;;5110947;28;20095;-78
2022/08/14 11:20:13;;;;;;;2.40;1.55;;;;;;;;;;5111096;28;20024;-78
2022/08/14 11:22:42;;;;;;;4.95;1.70;;;;;;;;;;5110565;28;20031;-77
2022/08/14 11:25:10;;;;;;;6.05;2.40;;;;;;;;;;5111289;28;20023;-78
2022/08/14 11:27:38;;;;;;;2.78;1.65;;;;;;;;;;5110860;28;20080;-78
2022/08/14 11:30:05;;;;;;;2.72;1.52;;;;;;;;;;5126180;28;20043;-78
2022/08/14 11:32:32;;;;;;;2.22;1.60;;;;;;;;;;5110770;28;20077;-78
2022/08/14 11:34:59;;;;;;;2.00;1.50;;;;;;;;;;5110504;28;20053;-78
2022/08/14 11:37:26;;;;;;;2.40;1.60;;;;;;;;;;5110202;28;20484;-79
2022/08/14 11:39:53;;;;;;;2.97;1.73;;;;;;;;;;5110793;28;20109;-79
2022/08/14 11:42:20;;;;;;;3.50;2.00;;;;;;;;;;5110498;28;20487;-78
2022/08/14 11:44:48;;;;;;;2.97;1.88;;;;;;;;;;5110116;28;20047;-78
2022/08/14 11:47:18;;;;;;;3.25;2.00;;;;;;;;;;5110410;28;20026;-77
2022/08/14 11:49:46;;;;;;;4.03;2.28;;;;;;;;;;5125724;28;20368;-77
2022/08/14 11:52:12;;;;;;;3.50;1.90;;;;;;;;;;5126102;28;20421;-78
2022/08/14 11:54:39;;;;;;;3.78;1.75;;;;;;;;;;5109991;28;20051;-77
2022/08/14 11:57:05;;;;;;;3.17;1.73;;;;;;;;;;5109910;28;20020;-80
2022/08/14 11:59:32;;;;;;;3.58;2.08;;;;;;;;;;5110068;28;20028;-79
2022/08/14 12:04:35;;;;;;;4.38;1.80;;;;;;;;;;5173423;27;20117;-77
2022/08/14 12:07:06;;;;;;;3.40;1.83;;;;;;;;;;5152664;27;20434;-78
2022/08/14 12:09:35;;;;;;;3.05;1.75;;;;;;;;;;5133963;27;20026;-77
2022/08/14 12:12:13;;;;;;;4.80;1.70;;;;;;;;;;5152034;27;20494;-78
2022/08/14 12:14:48;;;;;;;3.50;1.90;;;;;;;;;;5152546;27;20033;-78
2022/08/14 12:19:19;;;;;;;3.75;1.88;;;;;;;;;;5111047;27;20389;-78
2022/08/14 12:21:50;;;;;;;5.30;2.85;;;;;;;;;;5111872;28;20367;-78
2022/08/14 12:26:10;;;;;;;2.67;1.60;;;;;;;;;;5111347;27;20401;-77
2022/08/14 12:28:38;;;;;;;2.10;1.60;;;;;;;;;;5111387;28;20024;-77
2022/08/14 12:31:18;;;;;;;3.92;2.10;;;;;;;;;;5111256;28;20028;-77
2022/08/14 12:33:55;;;;;;;2.08;1.40;;;;;;;;;;5110840;28;20545;-78
2022/08/14 12:38:17;;;;;;;2.63;1.83;;;;;;;;;;5112071;27;20409;-78
2022/08/14 12:40:46;;;;;;;2.60;1.70;;;;;;;;;;5110988;28;20111;-78
2022/08/14 12:43:12;;;;;;;3.45;2.10;;;;;;;;;;5111322;28;20371;-77
2022/08/14 12:45:38;;;;;;;4.00;2.20;;;;;;;;;;5111610;28;20099;-77
2022/08/14 12:48:05;;;;;;;4.55;2.13;;;;;;;;;;5110797;28;20111;-77
2022/08/14 12:50:35;;;;;;;3.78;1.80;;;;;;;;;;5109911;28;20446;-78
2022/08/14 12:53:01;;;;;;;3.47;2.20;;;;;;;;;;5110581;28;20032;-78
2022/08/14 12:55:27;;;;;;;3.08;2.03;;;;;;;;;;5111017;28;20094;-78
2022/08/14 12:57:59;;;;;;;3.15;2.03;;;;;;;;;;5110951;28;20065;-78
2022/08/14 13:00:25;;;;;;;3.15;2.40;;;;;;;;;;5110891;28;20089;-79
2022/08/14 13:02:53;;;;;;;4.22;1.90;;;;;;;;;;5111073;28;20020;-79
2022/08/14 13:05:23;;;;;;;3.53;2.20;;;;;;;;;;5111053;28;20016;-79
2022/08/14 13:07:50;;;;;;;4.45;2.42;;;;;;;;;;5110896;28;20024;-78
2022/08/14 13:10:19;;;;;;;3.13;2.10;;;;;;;;;;5110819;28;20036;-78
2022/08/14 13:12:46;;;;;;;7.78;2.50;;;;;;;;;;5110939;28;20015;-78
2022/08/14 13:15:13;;;;;;;3.78;2.38;;;;;;;;;;5110214;28;20074;-78
2022/08/14 13:17:42;;;;;;;4.40;2.20;;;;;;;;;;5110567;28;20031;-77
2022/08/14 13:20:10;;;;;;;3.67;2.05;;;;;;;;;;5110460;28;20103;-78
2022/08/14 13:22:38;;;;;;;3.88;2.38;;;;;;;;;;5108852;28;20107;-77
2022/08/14 13:25:05;;;;;;;3.03;2.00;;;;;;;;;;5109018;28;20107;-78
2022/08/14 13:27:32;;;;;;;3.17;2.15;;;;;;;;;;5110799;28;20111;-78
2022/08/14 13:30:02;;;;;;;3.63;2.38;;;;;;;;;;5108604;28;20069;-78
2022/08/14 13:32:28;;;;;;;3.72;2.30;;;;;;;;;;5110519;28;20020;-78
2022/08/14 13:34:56;;;;;;;3.75;2.13;;;;;;;;;;5110471;28;20024;-78
2022/08/14 13:37:22;;;;;;;4.30;2.65;;;;;;;;;;5109578;28;20047;-78
2022/08/14 13:39:49;;;;;;;4.78;2.88;;;;;;;;;;5110350;28;20024;-78
2022/08/14 13:42:17;;;;;;;4.38;2.90;;;;;;;;;;5109821;28;20031;-78
2022/08/14 13:44:44;;;;;;;3.85;2.35;;;;;;;;;;5110252;28;20024;-77
2022/08/14 13:47:13;;;;;;;3.47;2.03;;;;;;;;;;5110076;28;20073;-78
2022/08/14 13:49:39;;;;;;;3.97;1.80;;;;;;;;;;5095925;28;20095;-78
2022/08/14 13:52:10;;;;;;;2.88;2.03;;;;;;;;;;5096870;28;20031;-79
2022/08/14 13:54:37;;;;;;;3.25;1.92;;;;;;;;;;5094931;28;20032;-78
2022/08/14 13:57:03;;;;;;;9.27;2.53;;;;;;;;;;5095809;28;20034;-79
2022/08/14 13:59:31;;;;;;;3.38;1.65;;;;;;;;;;5096286;28;20027;-79
2022/08/14 14:02:02;;;;;;;5.68;2.05;;;;;;;;;;5096211;28;20073;-78
2022/08/14 14:04:30;;;;;;;5.82;2.10;;;;;;;;;;5095942;28;20020;-79
2022/08/14 14:06:56;;;;;;;3.45;1.88;;;;;;;;;;5096132;28;20024;-78
2022/08/14 14:09:27;;;;;;;4.43;2.00;;;;;;;;;;5096056;28;20426;-78
2022/08/14 14:13:00;;;;;;;4.93;1.95;;;;;;;;;;5112133;27;20385;-78
2022/08/14 14:15:26;;;;;;;3.70;1.73;;;;;;;;;;5111301;28;20022;-77
2022/08/14 14:17:52;;;;;;;3.47;2.00;;;;;;;;;;5109622;28;20016;-77
2022/08/14 14:20:22;;;;;;;2.63;1.42;;;;;;;;;;5111250;28;20020;-77
2022/08/14 14:22:48;;;;;;;5.95;1.70;;;;;;;;;;5111079;28;20059;-77
2022/08/14 14:25:15;;;;;;;3.97;1.85;;;;;;;;;;5110668;28;20027;-77
2022/08/14 14:27:43;;;;;;;3.08;1.58;;;;;;;;;;5111394;28;20027;-77
2022/08/14 14:30:10;;;;;;;3.80;1.83;;;;;;;;;;5111036;28;20012;-77
2022/08/14 14:32:40;;;;;;;4.80;2.10;;;;;;;;;;5110516;28;20063;-77
2022/08/14 14:35:10;;;;;;;3.53;1.98;;;;;;;;;;5109768;28;20384;-76
2022/08/14 14:37:37;;;;;;;2.80;1.55;;;;;;;;;;5110897;28;20024;-77
2022/08/14 14:40:05;;;;;;;3.47;1.90;;;;;;;;;;5110458;28;20019;-77
2022/08/14 14:42:33;;;;;;;2.47;1.42;;;;;;;;;;5110824;28;20027;-77
2022/08/14 14:45:27;;;;;;;2.88;1.85;;;;;;;;;;5173031;27;20114;-77
2022/08/14 14:47:53;;;;;;;2.47;1.50;;;;;;;;;;5152601;27;20550;-77
2022/08/14 14:54:39;;;;;;;3.08;1.73;;;;;;;;;;5111040;27;20389;-77
2022/08/14 14:57:06;;;;;;;3.55;1.98;;;;;;;;;;5111540;28;20077;-77
2022/08/14 14:59:34;;;;;;;3.53;1.80;;;;;;;;;;5113346;28;20023;-76
2022/08/14 15:02:05;;;;;;;3.70;1.85;;;;;;;;;;5118204;28;20043;-77
2022/08/14 15:05:23;;;;;;;5.22;2.28;;;;;;;;;;5173769;27;20113;-78
2022/08/14 15:09:01;;;;;;;4.05;2.10;;;;;;;;;;5112232;27;20392;-77
2022/08/14 15:11:28;;;;;;;3.28;1.92;;;;;;;;;;5111429;28;20430;-77
2022/08/14 15:17:14;;;;;;;3.15;2.08;;;;;;;;;;5111890;27;20465;-77
2022/08/14 15:19:40;;;;;;;3.92;2.35;;;;;;;;;;5112302;28;20525;-76
2022/08/14 15:23:51;;;;;;;4.65;2.33;;;;;;;;;;5111703;27;20389;-79
2022/08/14 15:28:21;;;;;;;5.00;2.60;;;;;;;;;;5111623;27;20396;-77
2022/08/14 15:30:48;;;;;;;5.00;2.50;;;;;;;;;;5110164;28;20466;-77
2022/08/14 15:33:14;;;;;;;4.82;2.58;;;;;;;;;;5110018;28;20031;-77
2022/08/14 15:36:50;;;;;;;4.18;2.10;;;;;;;;;;5110980;27;20426;-77
2022/08/14 15:40:47;;;;;;;3.90;2.22;;;;;;;;;;5111501;27;20392;-78
2022/08/14 15:45:23;;;;;;;5.18;2.60;;;;;;;;;;5111326;27;20418;-77
2022/08/14 15:48:24;;;;;;;5.28;2.60;;;;;;;;;;5111408;27;20396;-77
2022/08/14 15:50:50;;;;;;;4.93;2.80;;;;;;;;;;5126887;28;20028;-77
2022/08/14 15:53:30;;;;;;;3.78;2.08;;;;;;;;;;5111786;27;20410;-77
2022/08/14 15:55:57;;;;;;;3.83;2.50;;;;;;;;;;5109670;28;20061;-78
2022/08/14 16:01:18;;;;;;;3.67;1.90;;;;;;;;;;5111848;27;20445;-77
2022/08/14 16:06:27;;;;;;;3.50;1.98;;;;;;;;;;5111504;27;20418;-78
2022/08/14 16:08:54;;;;;;;4.20;2.28;;;;;;;;;;5111230;28;20035;-78
2022/08/14 16:12:27;;;;;;;3.97;2.28;;;;;;;;;;5111521;27;20392;-80
2022/08/14 16:14:53;;;;;;;2.75;1.92;;;;;;;;;;5111437;28;20089;-79
2022/08/14 16:19:18;;;;;;;4.97;2.08;;;;;;;;;;5111700;27;20904;-78
2022/08/14 16:21:44;;;;;;;4.38;2.60;;;;;;;;;;5111291;28;20031;-79
2022/08/14 16:26:00;;;;;;;4.43;2.55;;;;;;;;;;5070328;28;20399;-76
2022/08/14 16:28:27;;;;;;;5.75;2.55;;;;;;;;;;5071156;28;20033;-76
2022/08/14 16:30:53;;;;;;;4.18;2.42;;;;;;;;;;5070391;28;20397;-76
2022/08/14 16:33:20;;;;;;;5.78;2.65;;;;;;;;;;5070597;28;20032;-77
2022/08/14 16:35:47;;;;;;;6.47;3.00;;;;;;;;;;5070669;28;20054;-79
2022/08/14 16:40:11;;;;;;;3.78;1.95;;;;;;;;;;5110850;27;20396;-78
2022/08/14 16:42:41;;;;;;;5.03;2.28;;;;;;;;;;5127246;28;20057;-78
2022/08/14 16:45:08;;;;;;;6.93;3.20;;;;;;;;;;5111041;28;20391;-78
2022/08/14 16:48:04;;;;;;;5.82;2.97;;;;;;;;;;5111704;27;20393;-80
2022/08/14 16:50:30;;;;;;;4.03;2.10;;;;;;;;;;5111328;28;20028;-79
2022/08/14 16:52:58;;;;;;;5.30;2.30;;;;;;;;;;5110961;28;20452;-80
2022/08/14 16:57:33;;;;;;;6.47;2.33;;;;;;;;;;5111382;27;20405;-79
2022/08/14 17:00:03;;;;;;;5.55;2.28;;;;;;;;;;5110875;28;20103;-78
2022/08/14 17:04:35;;;;;;;4.40;2.50;;;;;;;;;;5111968;27;20754;-80
2022/08/14 17:07:03;;;;;;;4.10;2.47;;;;;;;;;;5110832;28;20472;-77
2022/08/14 17:09:34;;;;;;;5.15;2.72;;;;;;;;;;5110027;28;20460;-79
2022/08/14 17:12:01;;;;;;;6.43;2.63;;;;;;;;;;5111347;28;20028;-77
2022/08/14 17:14:47;;;;;;;5.13;2.55;;;;;;;;;;5110930;28;20464;-79
2022/08/14 17:17:13;;;;;;;7.53;3.15;;;;;;;;;;5111101;28;20391;-79
2022/08/14 17:19:40;;;;;;;4.40;2.38;;;;;;;;;;5111117;28;20048;-79
2022/08/14 17:23:42;;;;;;;6.45;2.95;;;;;;;;;;5092156;27;20459;-77
2022/08/14 17:26:51;;;;;;;6.43;2.45;;;;;;;;;;5111442;27;20422;-77
2022/08/14 17:29:20;;;;;;;6.80;2.50;;;;;;;;;;5111021;28;20107;-77
2022/08/14 17:31:52;;;;;;;6.07;2.45;;;;;;;;;;5111265;28;20020;-77
2022/08/14 17:34:20;;;;;;;3.33;1.80;;;;;;;;;;5111309;28;20024;-77
2022/08/14 17:36:53;;;;;;;2.97;1.67;;;;;;;;;;5110856;28;20016;-78
2022/08/14 17:40:08;;;;;;;6.10;2.10;;;;;;;;;;5112096;27;20401;-78
2022/08/14 17:42:46;;;;;;;2.42;1.60;;;;;;;;;;5109624;28;20032;-77
2022/08/14 17:47:04;;;;;;;3.80;2.30;;;;;;;;;;5111997;27;20426;-77
2022/08/14 17:51:25;;;;;;;3.97;1.60;;;;;;;;;;5111531;27;20388;-79
2022/08/14 17:54:04;;;;;;;2.58;1.30;;;;;;;;;;5111628;27;20392;-78
2022/08/14 17:56:34;;;;;;;2.55;1.67;;;;;;;;;;5111260;28;20426;-78
2022/08/14 17:59:02;;;;;;;2.80;1.48;;;;;;;;;;5114570;28;20103;-78
2022/08/14 18:01:28;;;;;;;2.00;1.30;;;;;;;;;;5111510;28;20028;-78
2022/08/14 18:03:55;;;;;;;2.20;1.40;;;;;;;;;;5110833;28;20027;-78